Sisters, Oregon
Current Conditions -  °F | °C
As of 4:56 AM on Thursday 23 Oct 2014 (Local Time) from KRDM Reporting Station
Few Clouds Few Clouds  
Wind Chill: 51°   Ceiling: Unl
Heat Index: 51°   Visibility: 10mi
Dew Point: 45°   Wind: 6mph
Humidity: 80%   Direction: 200°SSW
Pressure: 29.8"   Gusts: NA
Location:  44.29°N, 121.55°W
Report Text: KRDM 231156Z 20005KT 10SM FEW037 11/07 A2980 RMK AO2 RAB09E31 SLP080 P0000 60002 70002 T01060072 10133 20100 58005
Loading
Personal Weather Stations






























Interactive Weather Map
Tropical Storm Tracking
New forecast layout! Learn more

10-Day Weather Forecast

Advertisements
Track Severe Weather on mobile